Bastille Street — A8YZ6 — position and weather

sailwx.info

Track history (hours):
 
Tides and Currents Weather Stations Pressure Air Temp Water Temp Dewpoint Dewpoint Depression Visibility Wind Speed Wind Dir Waves Ship Positions

Bastille Street

Last reported at 2014-May-29 01:05 UTC. Time now 2014-Aug-20 12:45 UTC.
Position N 26°11' E 055°29'.
Warning: this ship's position is months out of date.

Length 180 m; draft 11.8 m.

Type: Tanker. MMSI: 636015161.

Date/timePositionNaut miles runAvg speedWind from/ knotsBaromVisibWave heightAir tempDewpointWater temp
2014-May-29 01:05N 26°11' E 055°29'814.6
2014-May-29 00:33N 26°08' E 055°21'1413.6
2014-May-28 23:33N 26°08' E 055°06'1313.6
2014-May-28 22:33N 26°09' E 054°51'1413.6
2014-May-28 21:31N 26°11' E 054°36'1313.1
2014-May-28 20:33N 26°12' E 054°22'1613.8
2014-May-28 19:23N 26°14' E 054°04'230 4.6
2014-May-26 17:21N 27°17' E 049°56'0 0.1
2014-May-26 16:54N 27°17' E 049°56'0 0.0
2014-May-26 13:38N 27°17' E 049°56'0 0.4
2014-May-26 13:32N 27°17' E 049°56'1 2.0
2014-May-26 13:00N 27°17' E 049°57'193 8.2
2014-May-25 13:33N 26°27' E 053°26'6 6.5
2014-May-25 12:33N 26°27' E 053°33'7 7.0
2014-May-25 11:33N 26°27' E 053°41'7 7.5
2014-May-25 10:33N 26°26' E 053°49'8 8.3
2014-May-25 09:33N 26°25' E 053°58'8 8.0
2014-May-25 08:33N 26°24' E 054°07'8 7.7
2014-May-25 07:33N 26°23' E 054°16'8 8.0
2014-May-25 06:32N 26°22' E 054°25'8 8.1
2014-May-25 05:33N 26°21' E 054°33'8 7.7
2014-May-25 04:33N 26°21' E 054°42'8 7.5
2014-May-25 03:33N 26°20' E 054°50'9 9.4
2014-May-25 02:33N 26°19' E 055°01'9 8.9
2014-May-25 01:33N 26°19' E 055°11'9 8.7
2014-May-25 00:33N 26°20' E 055°20'8 8.4
2014-May-24 23:33N 26°23' E 055°29'8 8.3
2014-May-24 22:33N 26°25' E 055°38'9 8.7
2014-May-24 21:33N 26°27' E 055°48'9 9.5
2014-May-24 20:33N 26°30' E 055°58'1010.0
2014-May-24 19:33N 26°32' E 056°09'1010.5
2014-May-24 18:33N 26°36' E 056°19'1110.4
2014-May-24 17:33N 26°38' E 056°31'  
2014-May-20 10:33N 24°02' E 059°27'6 5.2
2014-May-20 09:28N 23°57' E 059°30'3 3.4
2014-May-20 08:33N 23°57' E 059°34'1010.3
2014-May-20 07:32N 23°50' E 059°42'  
Track history (hours):
 
Tides and Currents Weather Stations Pressure Air Temp Water Temp Dewpoint Dewpoint Depression Visibility Wind Speed Wind Dir Waves Ship Positions

Bastille Street

Last reported at 2014-May-29 01:05 UTC. Time now 2014-Aug-20 12:45 UTC.
Position N 26°11' E 055°29'.
Warning: this ship's position is months out of date.

Length 180 m; draft 11.8 m.

Type: Tanker. MMSI: 636015161.

Date/timePositionNaut miles runAvg speedWind from/ knotsBaromVisibWave heightAir tempDewpointWater temp
2014-May-29 01:05N 26°11' E 055°29'814.6
2014-May-29 00:33N 26°08' E 055°21'1413.6
2014-May-28 23:33N 26°08' E 055°06'1313.6
2014-May-28 22:33N 26°09' E 054°51'1413.6
2014-May-28 21:31N 26°11' E 054°36'1313.1
2014-May-28 20:33N 26°12' E 054°22'1613.8
2014-May-28 19:23N 26°14' E 054°04'230 4.6
2014-May-26 17:21N 27°17' E 049°56'0 0.1
2014-May-26 16:54N 27°17' E 049°56'0 0.0
2014-May-26 13:38N 27°17' E 049°56'0 0.4
2014-May-26 13:32N 27°17' E 049°56'1 2.0
2014-May-26 13:00N 27°17' E 049°57'193 8.2
2014-May-25 13:33N 26°27' E 053°26'6 6.5
2014-May-25 12:33N 26°27' E 053°33'7 7.0
2014-May-25 11:33N 26°27' E 053°41'7 7.5
2014-May-25 10:33N 26°26' E 053°49'8 8.3
2014-May-25 09:33N 26°25' E 053°58'8 8.0
2014-May-25 08:33N 26°24' E 054°07'8 7.7
2014-May-25 07:33N 26°23' E 054°16'8 8.0
2014-May-25 06:32N 26°22' E 054°25'8 8.1
2014-May-25 05:33N 26°21' E 054°33'8 7.7
2014-May-25 04:33N 26°21' E 054°42'8 7.5
2014-May-25 03:33N 26°20' E 054°50'9 9.4
2014-May-25 02:33N 26°19' E 055°01'9 8.9
2014-May-25 01:33N 26°19' E 055°11'9 8.7
2014-May-25 00:33N 26°20' E 055°20'8 8.4
2014-May-24 23:33N 26°23' E 055°29'8 8.3
2014-May-24 22:33N 26°25' E 055°38'9 8.7
2014-May-24 21:33N 26°27' E 055°48'9 9.5
2014-May-24 20:33N 26°30' E 055°58'1010.0
2014-May-24 19:33N 26°32' E 056°09'1010.5
2014-May-24 18:33N 26°36' E 056°19'1110.4
2014-May-24 17:33N 26°38' E 056°31'  
2014-May-20 10:33N 24°02' E 059°27'6 5.2
2014-May-20 09:28N 23°57' E 059°30'3 3.4
2014-May-20 08:33N 23°57' E 059°34'1010.3
2014-May-20 07:32N 23°50' E 059°42'  

Dump ship's entire track history